sensor_id;sensor_type;location;lat;lon;timestamp;P1;durP1;ratioP1;P2;durP2;ratioP2
11139;SDS011;5624;49.388;11.350;2023-04-16T00:00:30;5.87;;;3.97;;
11139;SDS011;5624;49.388;11.350;2023-04-16T00:02:55;5.20;;;4.20;;
11139;SDS011;5624;49.388;11.350;2023-04-16T00:05:21;4.87;;;3.97;;
11139;SDS011;5624;49.388;11.350;2023-04-16T00:07:47;5.13;;;3.80;;
11139;SDS011;5624;49.388;11.350;2023-04-16T00:10:12;5.43;;;3.97;;
11139;SDS011;5624;49.388;11.350;2023-04-16T00:12:38;4.57;;;3.93;;
11139;SDS011;5624;49.388;11.350;2023-04-16T00:15:03;4.50;;;3.60;;
11139;SDS011;5624;49.388;11.350;2023-04-16T00:17:29;4.87;;;3.80;;
11139;SDS011;5624;49.388;11.350;2023-04-16T00:19:55;4.63;;;3.83;;
11139;SDS011;5624;49.388;11.350;2023-04-16T00:22:21;4.53;;;3.53;;
11139;SDS011;5624;49.388;11.350;2023-04-16T00:24:46;4.43;;;3.73;;
11139;SDS011;5624;49.388;11.350;2023-04-16T00:27:12;4.63;;;3.73;;
11139;SDS011;5624;49.388;11.350;2023-04-16T00:29:37;4.87;;;3.63;;
11139;SDS011;5624;49.388;11.350;2023-04-16T00:32:03;4.70;;;3.80;;
11139;SDS011;5624;49.388;11.350;2023-04-16T00:34:28;4.97;;;4.33;;
11139;SDS011;5624;49.388;11.350;2023-04-16T00:36:54;6.60;;;3.70;;
11139;SDS011;5624;49.388;11.350;2023-04-16T00:39:20;4.53;;;3.73;;
11139;SDS011;5624;49.388;11.350;2023-04-16T00:41:45;5.53;;;3.83;;
11139;SDS011;5624;49.388;11.350;2023-04-16T00:44:11;5.93;;;4.23;;
11139;SDS011;5624;49.388;11.350;2023-04-16T00:46:36;5.70;;;4.37;;
11139;SDS011;5624;49.388;11.350;2023-04-16T00:49:03;5.53;;;4.20;;
11139;SDS011;5624;49.388;11.350;2023-04-16T00:51:28;6.63;;;4.47;;
11139;SDS011;5624;49.388;11.350;2023-04-16T00:53:55;5.93;;;4.20;;
11139;SDS011;5624;49.388;11.350;2023-04-16T00:56:21;4.97;;;4.00;;
11139;SDS011;5624;49.388;11.350;2023-04-16T00:58:48;4.87;;;3.80;;
11139;SDS011;5624;49.388;11.350;2023-04-16T01:01:14;5.93;;;4.00;;
11139;SDS011;5624;49.388;11.350;2023-04-16T01:03:44;5.53;;;4.07;;
11139;SDS011;5624;49.388;11.350;2023-04-16T01:06:11;5.67;;;4.10;;
11139;SDS011;5624;49.388;11.350;2023-04-16T01:08:37;5.93;;;4.43;;
11139;SDS011;5624;49.388;11.350;2023-04-16T01:11:03;5.60;;;4.30;;
11139;SDS011;5624;49.388;11.350;2023-04-16T01:13:29;5.63;;;4.20;;
11139;SDS011;5624;49.388;11.350;2023-04-16T01:15:55;5.50;;;4.37;;
11139;SDS011;5624;49.388;11.350;2023-04-16T01:18:21;5.40;;;4.53;;
11139;SDS011;5624;49.388;11.350;2023-04-16T01:20:48;5.77;;;4.20;;
11139;SDS011;5624;49.388;11.350;2023-04-16T01:23:14;6.47;;;4.13;;
11139;SDS011;5624;49.388;11.350;2023-04-16T01:25:40;5.30;;;4.00;;
11139;SDS011;5624;49.388;11.350;2023-04-16T01:28:05;5.57;;;4.20;;
11139;SDS011;5624;49.388;11.350;2023-04-16T01:30:31;5.17;;;3.70;;
11139;SDS011;5624;49.388;11.350;2023-04-16T01:32:57;6.03;;;4.80;;
11139;SDS011;5624;49.388;11.350;2023-04-16T01:35:23;6.03;;;3.93;;
11139;SDS011;5624;49.388;11.350;2023-04-16T01:37:49;5.97;;;4.23;;
11139;SDS011;5624;49.388;11.350;2023-04-16T01:40:15;6.17;;;4.33;;
11139;SDS011;5624;49.388;11.350;2023-04-16T01:42:41;7.20;;;4.90;;
11139;SDS011;5624;49.388;11.350;2023-04-16T01:45:07;5.93;;;4.53;;
11139;SDS011;5624;49.388;11.350;2023-04-16T01:47:33;7.13;;;5.03;;
11139;SDS011;5624;49.388;11.350;2023-04-16T01:49:58;5.47;;;4.10;;
11139;SDS011;5624;49.388;11.350;2023-04-16T01:52:25;5.80;;;4.30;;
11139;SDS011;5624;49.388;11.350;2023-04-16T01:54:50;6.90;;;5.10;;
11139;SDS011;5624;49.388;11.350;2023-04-16T01:57:16;6.70;;;5.07;;
11139;SDS011;5624;49.388;11.350;2023-04-16T01:59:42;6.43;;;4.60;;
11139;SDS011;5624;49.388;11.350;2023-04-16T02:02:08;7.37;;;5.07;;
11139;SDS011;5624;49.388;11.350;2023-04-16T02:04:35;6.53;;;4.77;;
11139;SDS011;5624;49.388;11.350;2023-04-16T02:07:02;6.97;;;4.73;;
11139;SDS011;5624;49.388;11.350;2023-04-16T02:09:29;7.00;;;5.10;;
11139;SDS011;5624;49.388;11.350;2023-04-16T02:11:54;7.43;;;5.23;;
11139;SDS011;5624;49.388;11.350;2023-04-16T02:14:20;7.47;;;4.97;;
11139;SDS011;5624;49.388;11.350;2023-04-16T02:16:49;7.50;;;5.07;;
11139;SDS011;5624;49.388;11.350;2023-04-16T02:19:15;7.53;;;5.27;;
11139;SDS011;5624;49.388;11.350;2023-04-16T02:21:41;5.90;;;4.50;;
11139;SDS011;5624;49.388;11.350;2023-04-16T02:24:06;7.23;;;4.70;;
11139;SDS011;5624;49.388;11.350;2023-04-16T02:26:32;7.70;;;5.17;;
11139;SDS011;5624;49.388;11.350;2023-04-16T02:28:57;7.90;;;5.43;;
11139;SDS011;5624;49.388;11.350;2023-04-16T02:31:23;6.80;;;4.93;;
11139;SDS011;5624;49.388;11.350;2023-04-16T02:33:49;8.77;;;5.37;;
11139;SDS011;5624;49.388;11.350;2023-04-16T02:36:14;8.73;;;5.37;;
11139;SDS011;5624;49.388;11.350;2023-04-16T02:38:40;7.23;;;5.03;;
11139;SDS011;5624;49.388;11.350;2023-04-16T02:41:05;7.80;;;5.17;;
11139;SDS011;5624;49.388;11.350;2023-04-16T02:43:31;7.57;;;5.00;;
11139;SDS011;5624;49.388;11.350;2023-04-16T02:45:56;7.20;;;4.90;;
11139;SDS011;5624;49.388;11.350;2023-04-16T02:48:23;8.30;;;5.97;;
11139;SDS011;5624;49.388;11.350;2023-04-16T02:50:49;7.40;;;5.50;;
11139;SDS011;5624;49.388;11.350;2023-04-16T02:53:14;7.53;;;5.03;;
11139;SDS011;5624;49.388;11.350;2023-04-16T02:55:40;6.73;;;4.73;;
11139;SDS011;5624;49.388;11.350;2023-04-16T02:58:06;7.37;;;5.00;;
11139;SDS011;5624;49.388;11.350;2023-04-16T03:00:31;7.93;;;5.00;;
11139;SDS011;5624;49.388;11.350;2023-04-16T03:02:57;6.80;;;4.50;;
11139;SDS011;5624;49.388;11.350;2023-04-16T03:05:22;5.77;;;4.03;;
11139;SDS011;5624;49.388;11.350;2023-04-16T03:07:48;6.60;;;4.20;;
11139;SDS011;5624;49.388;11.350;2023-04-16T03:10:14;6.33;;;3.97;;
11139;SDS011;5624;49.388;11.350;2023-04-16T03:12:40;6.67;;;4.20;;
11139;SDS011;5624;49.388;11.350;2023-04-16T03:15:06;6.50;;;4.30;;
11139;SDS011;5624;49.388;11.350;2023-04-16T03:17:32;5.93;;;4.17;;
11139;SDS011;5624;49.388;11.350;2023-04-16T03:19:58;6.80;;;4.80;;
11139;SDS011;5624;49.388;11.350;2023-04-16T03:22:23;7.43;;;4.93;;
11139;SDS011;5624;49.388;11.350;2023-04-16T03:24:49;6.80;;;4.67;;
11139;SDS011;5624;49.388;11.350;2023-04-16T03:27:14;6.67;;;4.57;;
11139;SDS011;5624;49.388;11.350;2023-04-16T03:29:40;6.80;;;4.73;;
11139;SDS011;5624;49.388;11.350;2023-04-16T03:32:05;6.73;;;4.80;;
11139;SDS011;5624;49.388;11.350;2023-04-16T03:34:31;7.33;;;5.20;;
11139;SDS011;5624;49.388;11.350;2023-04-16T03:36:57;6.47;;;4.20;;
11139;SDS011;5624;49.388;11.350;2023-04-16T03:39:22;6.97;;;4.90;;
11139;SDS011;5624;49.388;11.350;2023-04-16T03:41:48;6.60;;;4.80;;
11139;SDS011;5624;49.388;11.350;2023-04-16T03:44:13;7.37;;;5.03;;
11139;SDS011;5624;49.388;11.350;2023-04-16T03:46:39;6.97;;;4.90;;
11139;SDS011;5624;49.388;11.350;2023-04-16T03:49:05;7.37;;;5.17;;
11139;SDS011;5624;49.388;11.350;2023-04-16T03:51:30;7.33;;;4.87;;
11139;SDS011;5624;49.388;11.350;2023-04-16T03:53:56;7.00;;;4.93;;
11139;SDS011;5624;49.388;11.350;2023-04-16T03:56:22;8.70;;;5.13;;
11139;SDS011;5624;49.388;11.350;2023-04-16T03:58:47;7.10;;;4.67;;
11139;SDS011;5624;49.388;11.350;2023-04-16T04:01:13;6.80;;;4.87;;
11139;SDS011;5624;49.388;11.350;2023-04-16T04:03:38;6.77;;;4.93;;
11139;SDS011;5624;49.388;11.350;2023-04-16T04:06:07;8.07;;;5.00;;
11139;SDS011;5624;49.388;11.350;2023-04-16T04:08:33;7.33;;;4.83;;
11139;SDS011;5624;49.388;11.350;2023-04-16T04:10:58;8.63;;;5.87;;
11139;SDS011;5624;49.388;11.350;2023-04-16T04:13:24;7.93;;;4.90;;
11139;SDS011;5624;49.388;11.350;2023-04-16T04:15:49;7.37;;;4.63;;
11139;SDS011;5624;49.388;11.350;2023-04-16T04:18:15;6.40;;;4.43;;
11139;SDS011;5624;49.388;11.350;2023-04-16T04:20:41;7.57;;;5.07;;
11139;SDS011;5624;49.388;11.350;2023-04-16T04:23:06;8.13;;;5.00;;
11139;SDS011;5624;49.388;11.350;2023-04-16T04:25:32;7.63;;;5.03;;
11139;SDS011;5624;49.388;11.350;2023-04-16T04:27:59;9.27;;;5.53;;
11139;SDS011;5624;49.388;11.350;2023-04-16T04:30:24;10.53;;;6.10;;
11139;SDS011;5624;49.388;11.350;2023-04-16T04:32:50;8.37;;;4.93;;
11139;SDS011;5624;49.388;11.350;2023-04-16T04:35:15;8.87;;;5.13;;
11139;SDS011;5624;49.388;11.350;2023-04-16T04:37:41;9.60;;;6.17;;
11139;SDS011;5624;49.388;11.350;2023-04-16T04:40:07;8.50;;;5.30;;
11139;SDS011;5624;49.388;11.350;2023-04-16T04:42:33;8.23;;;4.80;;
11139;SDS011;5624;49.388;11.350;2023-04-16T04:44:58;7.93;;;5.47;;
11139;SDS011;5624;49.388;11.350;2023-04-16T04:47:24;8.50;;;5.23;;
11139;SDS011;5624;49.388;11.350;2023-04-16T04:49:50;9.60;;;5.47;;
11139;SDS011;5624;49.388;11.350;2023-04-16T04:52:15;7.53;;;4.83;;
11139;SDS011;5624;49.388;11.350;2023-04-16T04:54:41;11.40;;;6.20;;
11139;SDS011;5624;49.388;11.350;2023-04-16T04:57:07;8.27;;;5.50;;
11139;SDS011;5624;49.388;11.350;2023-04-16T04:59:32;9.07;;;5.90;;
11139;SDS011;5624;49.388;11.350;2023-04-16T05:01:58;9.43;;;5.73;;
11139;SDS011;5624;49.388;11.350;2023-04-16T05:04:24;10.87;;;5.67;;
11139;SDS011;5624;49.388;11.350;2023-04-16T05:06:49;8.93;;;5.50;;
11139;SDS011;5624;49.388;11.350;2023-04-16T05:09:15;9.83;;;6.07;;
11139;SDS011;5624;49.388;11.350;2023-04-16T05:11:41;10.70;;;6.27;;
11139;SDS011;5624;49.388;11.350;2023-04-16T05:14:06;13.90;;;6.77;;
11139;SDS011;5624;49.388;11.350;2023-04-16T05:16:35;12.47;;;8.13;;
11139;SDS011;5624;49.388;11.350;2023-04-16T05:19:01;12.60;;;8.27;;
11139;SDS011;5624;49.388;11.350;2023-04-16T05:21:26;10.27;;;6.50;;
11139;SDS011;5624;49.388;11.350;2023-04-16T05:23:52;10.23;;;6.00;;
11139;SDS011;5624;49.388;11.350;2023-04-16T05:26:18;10.67;;;6.03;;
11139;SDS011;5624;49.388;11.350;2023-04-16T05:28:43;9.67;;;5.40;;
11139;SDS011;5624;49.388;11.350;2023-04-16T05:31:09;6.00;;;3.70;;
11139;SDS011;5624;49.388;11.350;2023-04-16T05:33:34;8.03;;;4.40;;
11139;SDS011;5624;49.388;11.350;2023-04-16T05:36:00;8.70;;;5.10;;
11139;SDS011;5624;49.388;11.350;2023-04-16T05:38:26;8.57;;;4.87;;
11139;SDS011;5624;49.388;11.350;2023-04-16T05:40:51;6.47;;;4.03;;
11139;SDS011;5624;49.388;11.350;2023-04-16T05:43:17;9.10;;;5.33;;
11139;SDS011;5624;49.388;11.350;2023-04-16T05:45:42;8.10;;;5.60;;
11139;SDS011;5624;49.388;11.350;2023-04-16T05:48:08;10.33;;;6.13;;
11139;SDS011;5624;49.388;11.350;2023-04-16T05:50:34;13.73;;;6.00;;
11139;SDS011;5624;49.388;11.350;2023-04-16T05:53:01;9.70;;;5.30;;
11139;SDS011;5624;49.388;11.350;2023-04-16T05:55:28;8.77;;;5.70;;
11139;SDS011;5624;49.388;11.350;2023-04-16T05:57:53;11.13;;;6.90;;
11139;SDS011;5624;49.388;11.350;2023-04-16T06:00:19;11.83;;;7.27;;
11139;SDS011;5624;49.388;11.350;2023-04-16T06:02:45;11.93;;;6.60;;
11139;SDS011;5624;49.388;11.350;2023-04-16T06:05:10;9.80;;;5.00;;
11139;SDS011;5624;49.388;11.350;2023-04-16T06:07:36;9.27;;;5.67;;
11139;SDS011;5624;49.388;11.350;2023-04-16T06:10:01;9.10;;;5.63;;
11139;SDS011;5624;49.388;11.350;2023-04-16T06:12:27;9.67;;;5.90;;
11139;SDS011;5624;49.388;11.350;2023-04-16T06:14:52;9.60;;;5.43;;
11139;SDS011;5624;49.388;11.350;2023-04-16T06:17:18;8.97;;;5.77;;
11139;SDS011;5624;49.388;11.350;2023-04-16T06:19:44;8.83;;;5.33;;
11139;SDS011;5624;49.388;11.350;2023-04-16T06:22:10;9.13;;;5.27;;
11139;SDS011;5624;49.388;11.350;2023-04-16T06:24:36;9.30;;;5.50;;
11139;SDS011;5624;49.388;11.350;2023-04-16T06:27:01;9.87;;;5.63;;
11139;SDS011;5624;49.388;11.350;2023-04-16T06:29:27;9.43;;;6.00;;
11139;SDS011;5624;49.388;11.350;2023-04-16T06:31:53;10.40;;;5.87;;
11139;SDS011;5624;49.388;11.350;2023-04-16T06:34:19;8.57;;;5.53;;
11139;SDS011;5624;49.388;11.350;2023-04-16T06:36:45;8.10;;;4.83;;
11139;SDS011;5624;49.388;11.350;2023-04-16T06:39:10;8.23;;;5.00;;
11139;SDS011;5624;49.388;11.350;2023-04-16T06:41:37;8.33;;;4.47;;
11139;SDS011;5624;49.388;11.350;2023-04-16T06:44:03;7.53;;;4.77;;
11139;SDS011;5624;49.388;11.350;2023-04-16T06:46:29;7.67;;;4.70;;
11139;SDS011;5624;49.388;11.350;2023-04-16T06:48:55;6.30;;;4.10;;
11139;SDS011;5624;49.388;11.350;2023-04-16T06:51:21;6.50;;;4.10;;
11139;SDS011;5624;49.388;11.350;2023-04-16T06:53:47;7.17;;;4.30;;
11139;SDS011;5624;49.388;11.350;2023-04-16T06:56:13;6.87;;;4.10;;
11139;SDS011;5624;49.388;11.350;2023-04-16T06:58:39;7.47;;;5.10;;
11139;SDS011;5624;49.388;11.350;2023-04-16T07:01:05;6.10;;;4.00;;
11139;SDS011;5624;49.388;11.350;2023-04-16T07:03:30;7.07;;;4.80;;
11139;SDS011;5624;49.388;11.350;2023-04-16T07:05:56;5.87;;;4.53;;
11139;SDS011;5624;49.388;11.350;2023-04-16T07:08:22;6.00;;;4.30;;
11139;SDS011;5624;49.388;11.350;2023-04-16T07:10:48;8.00;;;5.70;;
11139;SDS011;5624;49.388;11.350;2023-04-16T07:13:14;6.60;;;4.40;;
11139;SDS011;5624;49.388;11.350;2023-04-16T07:15:39;6.10;;;4.90;;
11139;SDS011;5624;49.388;11.350;2023-04-16T07:18:05;7.13;;;6.30;;
11139;SDS011;5624;49.388;11.350;2023-04-16T07:20:31;5.17;;;3.63;;
11139;SDS011;5624;49.388;11.350;2023-04-16T07:22:56;5.20;;;3.80;;
11139;SDS011;5624;49.388;11.350;2023-04-16T07:25:23;5.30;;;3.77;;
11139;SDS011;5624;49.388;11.350;2023-04-16T07:27:49;5.27;;;4.30;;
11139;SDS011;5624;49.388;11.350;2023-04-16T07:30:14;4.60;;;3.63;;
11139;SDS011;5624;49.388;11.350;2023-04-16T07:32:40;5.13;;;4.30;;
11139;SDS011;5624;49.388;11.350;2023-04-16T07:35:06;5.37;;;4.10;;
11139;SDS011;5624;49.388;11.350;2023-04-16T07:37:32;5.67;;;4.40;;
11139;SDS011;5624;49.388;11.350;2023-04-16T07:39:58;5.80;;;4.13;;
11139;SDS011;5624;49.388;11.350;2023-04-16T07:42:24;5.97;;;4.30;;
11139;SDS011;5624;49.388;11.350;2023-04-16T07:44:51;4.43;;;3.53;;
11139;SDS011;5624;49.388;11.350;2023-04-16T07:47:17;3.80;;;3.20;;
11139;SDS011;5624;49.388;11.350;2023-04-16T07:49:43;4.80;;;3.73;;
11139;SDS011;5624;49.388;11.350;2023-04-16T07:52:08;4.93;;;3.70;;
11139;SDS011;5624;49.388;11.350;2023-04-16T07:54:34;4.63;;;3.47;;
11139;SDS011;5624;49.388;11.350;2023-04-16T07:57:00;4.33;;;3.33;;
11139;SDS011;5624;49.388;11.350;2023-04-16T07:59:26;3.97;;;3.00;;
11139;SDS011;5624;49.388;11.350;2023-04-16T08:01:51;4.23;;;2.97;;
11139;SDS011;5624;49.388;11.350;2023-04-16T08:04:17;4.50;;;3.50;;
11139;SDS011;5624;49.388;11.350;2023-04-16T08:06:48;5.53;;;4.23;;
11139;SDS011;5624;49.388;11.350;2023-04-16T08:09:14;6.63;;;4.07;;
11139;SDS011;5624;49.388;11.350;2023-04-16T08:11:40;3.20;;;2.90;;
11139;SDS011;5624;49.388;11.350;2023-04-16T08:14:06;3.33;;;2.63;;
11139;SDS011;5624;49.388;11.350;2023-04-16T08:16:31;3.57;;;2.70;;
11139;SDS011;5624;49.388;11.350;2023-04-16T08:18:57;4.67;;;2.90;;
11139;SDS011;5624;49.388;11.350;2023-04-16T08:21:24;3.60;;;2.87;;
11139;SDS011;5624;49.388;11.350;2023-04-16T08:23:52;4.20;;;3.10;;
11139;SDS011;5624;49.388;11.350;2023-04-16T08:26:18;3.97;;;2.97;;
11139;SDS011;5624;49.388;11.350;2023-04-16T08:28:44;4.13;;;3.10;;
11139;SDS011;5624;49.388;11.350;2023-04-16T08:31:09;4.17;;;3.03;;
11139;SDS011;5624;49.388;11.350;2023-04-16T08:33:35;3.27;;;2.73;;
11139;SDS011;5624;49.388;11.350;2023-04-16T08:36:01;3.87;;;2.40;;
11139;SDS011;5624;49.388;11.350;2023-04-16T08:38:26;2.43;;;2.20;;
11139;SDS011;5624;49.388;11.350;2023-04-16T08:40:52;3.33;;;2.60;;
11139;SDS011;5624;49.388;11.350;2023-04-16T08:43:20;6.27;;;3.83;;
11139;SDS011;5624;49.388;11.350;2023-04-16T08:45:48;3.73;;;2.93;;
11139;SDS011;5624;49.388;11.350;2023-04-16T08:48:17;2.23;;;1.83;;
11139;SDS011;5624;49.388;11.350;2023-04-16T08:50:45;2.43;;;1.60;;
11139;SDS011;5624;49.388;11.350;2023-04-16T08:53:17;1.20;;;1.10;;
11139;SDS011;5624;49.388;11.350;2023-04-16T08:55:47;2.93;;;2.00;;
11139;SDS011;5624;49.388;11.350;2023-04-16T09:00:43;1.23;;;1.13;;
11139;SDS011;5624;49.388;11.350;2023-04-16T09:03:10;1.20;;;1.10;;
11139;SDS011;5624;49.388;11.350;2023-04-16T09:05:36;1.03;;;0.90;;
11139;SDS011;5624;49.388;11.350;2023-04-16T09:08:05;1.43;;;1.13;;
11139;SDS011;5624;49.388;11.350;2023-04-16T09:10:31;1.70;;;1.60;;
11139;SDS011;5624;49.388;11.350;2023-04-16T09:12:57;3.70;;;2.07;;
11139;SDS011;5624;49.388;11.350;2023-04-16T09:15:23;2.10;;;1.40;;
11139;SDS011;5624;49.388;11.350;2023-04-16T09:17:50;1.00;;;1.00;;
11139;SDS011;5624;49.388;11.350;2023-04-16T09:20:16;1.60;;;1.40;;
11139;SDS011;5624;49.388;11.350;2023-04-16T09:22:42;1.27;;;1.10;;
11139;SDS011;5624;49.388;11.350;2023-04-16T09:25:09;1.07;;;1.00;;
11139;SDS011;5624;49.388;11.350;2023-04-16T09:27:35;1.03;;;0.93;;
11139;SDS011;5624;49.388;11.350;2023-04-16T09:30:17;1.17;;;1.07;;
11139;SDS011;5624;49.388;11.350;2023-04-16T09:32:50;1.20;;;1.10;;
11139;SDS011;5624;49.388;11.350;2023-04-16T09:35:20;1.33;;;1.10;;
11139;SDS011;5624;49.388;11.350;2023-04-16T09:37:55;1.23;;;1.13;;
11139;SDS011;5624;49.388;11.350;2023-04-16T09:40:25;0.90;;;0.90;;
11139;SDS011;5624;49.388;11.350;2023-04-16T09:42:51;1.30;;;1.10;;
11139;SDS011;5624;49.388;11.350;2023-04-16T09:45:21;1.23;;;1.10;;
11139;SDS011;5624;49.388;11.350;2023-04-16T09:47:47;1.37;;;0.90;;
11139;SDS011;5624;49.388;11.350;2023-04-16T09:50:13;1.97;;;1.33;;
11139;SDS011;5624;49.388;11.350;2023-04-16T09:52:44;1.60;;;1.50;;
11139;SDS011;5624;49.388;11.350;2023-04-16T09:55:12;1.30;;;1.20;;
11139;SDS011;5624;49.388;11.350;2023-04-16T09:57:39;1.63;;;1.40;;
11139;SDS011;5624;49.388;11.350;2023-04-16T10:00:05;1.00;;;0.90;;
11139;SDS011;5624;49.388;11.350;2023-04-16T10:02:35;1.40;;;1.30;;
11139;SDS011;5624;49.388;11.350;2023-04-16T10:05:05;1.47;;;1.20;;
11139;SDS011;5624;49.388;11.350;2023-04-16T10:07:34;2.30;;;1.60;;
11139;SDS011;5624;49.388;11.350;2023-04-16T10:10:01;2.60;;;1.10;;
11139;SDS011;5624;49.388;11.350;2023-04-16T10:12:28;3.20;;;1.53;;
11139;SDS011;5624;49.388;11.350;2023-04-16T10:14:56;2.40;;;1.67;;
11139;SDS011;5624;49.388;11.350;2023-04-16T10:17:23;1.50;;;1.30;;
11139;SDS011;5624;49.388;11.350;2023-04-16T10:19:50;2.33;;;1.80;;
11139;SDS011;5624;49.388;11.350;2023-04-16T10:22:16;2.23;;;1.50;;
11139;SDS011;5624;49.388;11.350;2023-04-16T10:24:42;3.73;;;2.63;;
11139;SDS011;5624;49.388;11.350;2023-04-16T10:27:09;1.50;;;1.40;;
11139;SDS011;5624;49.388;11.350;2023-04-16T10:29:34;1.93;;;1.30;;
11139;SDS011;5624;49.388;11.350;2023-04-16T10:32:01;1.93;;;1.47;;
11139;SDS011;5624;49.388;11.350;2023-04-16T10:34:27;1.50;;;1.40;;
11139;SDS011;5624;49.388;11.350;2023-04-16T10:36:55;2.80;;;2.17;;
11139;SDS011;5624;49.388;11.350;2023-04-16T10:39:21;3.27;;;1.63;;
11139;SDS011;5624;49.388;11.350;2023-04-16T10:41:49;4.20;;;3.27;;
11139;SDS011;5624;49.388;11.350;2023-04-16T10:44:30;7.00;;;5.37;;
11139;SDS011;5624;49.388;11.350;2023-04-16T10:46:56;7.10;;;5.63;;
11139;SDS011;5624;49.388;11.350;2023-04-16T10:49:23;8.13;;;4.07;;
11139;SDS011;5624;49.388;11.350;2023-04-16T10:54:27;1.93;;;1.70;;
11139;SDS011;5624;49.388;11.350;2023-04-16T10:56:58;4.33;;;2.00;;
11139;SDS011;5624;49.388;11.350;2023-04-16T10:59:29;1.90;;;1.57;;
11139;SDS011;5624;49.388;11.350;2023-04-16T11:01:58;2.57;;;1.60;;
11139;SDS011;5624;49.388;11.350;2023-04-16T11:04:28;1.73;;;1.23;;
11139;SDS011;5624;49.388;11.350;2023-04-16T11:15:15;5.77;;;2.17;;
11139;SDS011;5624;49.388;11.350;2023-04-16T11:17:47;5.43;;;1.80;;
11139;SDS011;5624;49.388;11.350;2023-04-16T11:20:17;2.10;;;1.40;;
11139;SDS011;5624;49.388;11.350;2023-04-16T11:22:47;8.27;;;3.33;;
11139;SDS011;5624;49.388;11.350;2023-04-16T11:27:53;4.00;;;2.00;;
11139;SDS011;5624;49.388;11.350;2023-04-16T11:30:29;8.37;;;5.87;;
11139;SDS011;5624;49.388;11.350;2023-04-16T11:33:01;4.53;;;3.23;;
11139;SDS011;5624;49.388;11.350;2023-04-16T11:35:33;11.07;;;7.93;;
11139;SDS011;5624;49.388;11.350;2023-04-16T11:37:59;2.13;;;1.70;;
11139;SDS011;5624;49.388;11.350;2023-04-16T11:40:28;5.57;;;3.23;;
11139;SDS011;5624;49.388;11.350;2023-04-16T11:42:55;32.93;;;21.73;;
11139;SDS011;5624;49.388;11.350;2023-04-16T11:45:36;32.37;;;23.63;;
11139;SDS011;5624;49.388;11.350;2023-04-16T11:48:02;4.80;;;3.63;;
11139;SDS011;5624;49.388;11.350;2023-04-16T11:50:27;3.00;;;1.90;;
11139;SDS011;5624;49.388;11.350;2023-04-16T11:52:54;1.70;;;1.43;;
11139;SDS011;5624;49.388;11.350;2023-04-16T11:55:21;1.60;;;1.43;;
11139;SDS011;5624;49.388;11.350;2023-04-16T11:57:47;1.27;;;1.17;;
11139;SDS011;5624;49.388;11.350;2023-04-16T12:00:13;3.97;;;3.67;;
11139;SDS011;5624;49.388;11.350;2023-04-16T12:02:43;2.07;;;1.40;;
11139;SDS011;5624;49.388;11.350;2023-04-16T12:07:59;2.07;;;1.70;;
11139;SDS011;5624;49.388;11.350;2023-04-16T12:10:55;2.50;;;1.90;;
11139;SDS011;5624;49.388;11.350;2023-04-16T12:13:20;3.97;;;2.72;;
11139;SDS011;5624;49.388;11.350;2023-04-16T12:18:12;4.73;;;3.47;;
11139;SDS011;5624;49.388;11.350;2023-04-16T12:20:40;4.93;;;3.53;;
11139;SDS011;5624;49.388;11.350;2023-04-16T12:23:06;8.32;;;6.72;;
11139;SDS011;5624;49.388;11.350;2023-04-16T12:25:33;4.33;;;3.23;;
11139;SDS011;5624;49.388;11.350;2023-04-16T12:27:58;4.40;;;3.00;;
11139;SDS011;5624;49.388;11.350;2023-04-16T12:30:25;2.77;;;2.00;;
11139;SDS011;5624;49.388;11.350;2023-04-16T12:32:52;3.70;;;1.97;;
11139;SDS011;5624;49.388;11.350;2023-04-16T12:35:37;3.03;;;2.00;;
11139;SDS011;5624;49.388;11.350;2023-04-16T12:38:03;3.93;;;2.30;;
11139;SDS011;5624;49.388;11.350;2023-04-16T12:40:28;3.70;;;2.50;;
11139;SDS011;5624;49.388;11.350;2023-04-16T12:42:54;3.30;;;2.20;;
11139;SDS011;5624;49.388;11.350;2023-04-16T12:45:20;3.07;;;2.27;;
11139;SDS011;5624;49.388;11.350;2023-04-16T12:47:46;2.27;;;1.80;;
11139;SDS011;5624;49.388;11.350;2023-04-16T12:50:14;2.47;;;1.70;;
11139;SDS011;5624;49.388;11.350;2023-04-16T12:52:40;2.93;;;1.60;;
11139;SDS011;5624;49.388;11.350;2023-04-16T12:55:05;3.30;;;1.93;;
11139;SDS011;5624;49.388;11.350;2023-04-16T12:57:31;3.27;;;1.97;;
11139;SDS011;5624;49.388;11.350;2023-04-16T12:59:57;1.77;;;1.50;;
11139;SDS011;5624;49.388;11.350;2023-04-16T13:02:23;5.00;;;2.03;;
11139;SDS011;5624;49.388;11.350;2023-04-16T13:04:50;1.60;;;1.30;;
11139;SDS011;5624;49.388;11.350;2023-04-16T13:07:16;2.60;;;1.70;;
11139;SDS011;5624;49.388;11.350;2023-04-16T13:09:42;1.97;;;1.53;;
11139;SDS011;5624;49.388;11.350;2023-04-16T13:12:08;1.60;;;1.30;;
11139;SDS011;5624;49.388;11.350;2023-04-16T13:14:34;1.23;;;1.13;;
11139;SDS011;5624;49.388;11.350;2023-04-16T13:16:59;3.43;;;2.37;;
11139;SDS011;5624;49.388;11.350;2023-04-16T13:19:27;2.73;;;1.70;;
11139;SDS011;5624;49.388;11.350;2023-04-16T13:21:53;2.30;;;1.80;;
11139;SDS011;5624;49.388;11.350;2023-04-16T13:24:19;2.13;;;1.60;;
11139;SDS011;5624;49.388;11.350;2023-04-16T13:26:45;2.00;;;1.80;;
11139;SDS011;5624;49.388;11.350;2023-04-16T13:29:10;2.50;;;1.70;;
11139;SDS011;5624;49.388;11.350;2023-04-16T13:31:36;2.43;;;1.87;;
11139;SDS011;5624;49.388;11.350;2023-04-16T13:34:02;1.40;;;1.30;;
11139;SDS011;5624;49.388;11.350;2023-04-16T13:36:28;1.87;;;1.60;;
11139;SDS011;5624;49.388;11.350;2023-04-16T13:38:56;2.10;;;1.50;;
11139;SDS011;5624;49.388;11.350;2023-04-16T13:41:22;1.10;;;1.00;;
11139;SDS011;5624;49.388;11.350;2023-04-16T13:43:48;1.60;;;1.00;;
11139;SDS011;5624;49.388;11.350;2023-04-16T13:46:14;1.83;;;1.30;;
11139;SDS011;5624;49.388;11.350;2023-04-16T13:48:40;1.43;;;1.13;;
11139;SDS011;5624;49.388;11.350;2023-04-16T13:51:05;1.30;;;1.20;;
11139;SDS011;5624;49.388;11.350;2023-04-16T13:53:32;1.33;;;1.23;;
11139;SDS011;5624;49.388;11.350;2023-04-16T13:55:58;1.20;;;1.10;;
11139;SDS011;5624;49.388;11.350;2023-04-16T13:58:23;6.00;;;2.23;;
11139;SDS011;5624;49.388;11.350;2023-04-16T14:00:50;1.60;;;1.30;;
11139;SDS011;5624;49.388;11.350;2023-04-16T14:03:16;1.33;;;1.23;;
11139;SDS011;5624;49.388;11.350;2023-04-16T14:05:41;1.00;;;1.00;;
11139;SDS011;5624;49.388;11.350;2023-04-16T14:08:07;1.08;;;0.98;;
11139;SDS011;5624;49.388;11.350;2023-04-16T14:10:34;1.35;;;1.13;;
11139;SDS011;5624;49.388;11.350;2023-04-16T14:13:01;1.77;;;1.40;;
11139;SDS011;5624;49.388;11.350;2023-04-16T14:15:26;1.80;;;1.23;;
11139;SDS011;5624;49.388;11.350;2023-04-16T14:17:53;1.50;;;1.10;;
11139;SDS011;5624;49.388;11.350;2023-04-16T14:20:19;3.47;;;1.48;;
11139;SDS011;5624;49.388;11.350;2023-04-16T14:22:45;1.77;;;1.33;;
11139;SDS011;5624;49.388;11.350;2023-04-16T14:25:11;2.45;;;1.23;;
11139;SDS011;5624;49.388;11.350;2023-04-16T14:27:36;0.85;;;0.85;;
11139;SDS011;5624;49.388;11.350;2023-04-16T14:30:03;1.10;;;0.98;;
11139;SDS011;5624;49.388;11.350;2023-04-16T14:32:29;1.42;;;0.90;;
11139;SDS011;5624;49.388;11.350;2023-04-16T14:34:55;1.27;;;1.17;;
11139;SDS011;5624;49.388;11.350;2023-04-16T14:37:21;1.48;;;1.00;;
11139;SDS011;5624;49.388;11.350;2023-04-16T14:39:47;1.40;;;1.23;;
11139;SDS011;5624;49.388;11.350;2023-04-16T14:42:12;1.33;;;1.17;;
11139;SDS011;5624;49.388;11.350;2023-04-16T14:44:38;1.52;;;1.20;;
11139;SDS011;5624;49.388;11.350;2023-04-16T14:47:04;2.10;;;1.25;;
11139;SDS011;5624;49.388;11.350;2023-04-16T14:49:30;1.95;;;1.40;;
11139;SDS011;5624;49.388;11.350;2023-04-16T14:51:57;1.42;;;1.08;;
11139;SDS011;5624;49.388;11.350;2023-04-16T14:54:24;1.50;;;1.30;;
11139;SDS011;5624;49.388;11.350;2023-04-16T14:56:50;1.97;;;1.10;;
11139;SDS011;5624;49.388;11.350;2023-04-16T14:59:16;2.63;;;1.50;;
11139;SDS011;5624;49.388;11.350;2023-04-16T15:01:41;1.83;;;1.30;;
11139;SDS011;5624;49.388;11.350;2023-04-16T15:04:07;2.33;;;1.40;;